Jeffrey G Stover — WDI4806 — position and weather

sailwx.info

Track history (hours):
 
Tides and Currents Weather Stations Pressure Air Temp Water Temp Dewpoint Dewpoint Depression Visibility Wind Speed Wind Dir Waves Ship Positions

Jeffrey G Stover

Owner: ACBL River Operations LLC, Jeffersonville, IN. More information available from US FCC via Universal Licensing System and Coast Guard Vessel Documentation Center.

Last reported at 2017-Nov-19 05:39 UTC. Time now 2017-Nov-20 17:00 UTC.
Position N 32°40' W 091°08'.

Length 56 m; draft 3.1 m.

Type: Towing. MMSI: 367702190.

Date/timePositionNaut miles runAvg speedWind from/ knotsBaromVisibWave heightAir tempDewpointWater temp
2017-Nov-19 05:39N 32°40' W 091°08'1 4.4
2017-Nov-19 05:29N 32°40' W 091°08'2 4.0
2017-Nov-19 04:58N 32°38' W 091°09'2 4.1
2017-Nov-19 04:30N 32°36' W 091°08'2 4.2
2017-Nov-19 04:00N 32°34' W 091°07'2 4.1
2017-Nov-19 03:24N 32°32' W 091°06'2 4.6
2017-Nov-19 03:00N 32°30' W 091°07'1 2.3
2017-Nov-19 02:30N 32°29' W 091°07'2 3.9
2017-Nov-19 02:00N 32°28' W 091°06'2 4.5
2017-Nov-19 01:30N 32°26' W 091°04'2 4.2
2017-Nov-19 01:00N 32°26' W 091°01'2 4.1
2017-Nov-19 00:30N 32°24' W 090°59'2 3.4
2017-Nov-19 00:00N 32°23' W 091°00'2 3.7
2017-Nov-18 23:30N 32°21' W 090°59'2 4.4
2017-Nov-18 23:00N 32°21' W 090°57'2 4.2
2017-Nov-18 22:30N 32°20' W 090°54'2 4.0
2017-Nov-18 22:00N 32°18' W 090°55'3 5.1
2017-Nov-18 21:30N 32°16' W 090°58'2 4.5
2017-Nov-18 21:00N 32°14' W 090°59'2 4.9
2017-Nov-18 20:30N 32°12' W 090°59'2 4.5
2017-Nov-18 20:00N 32°10' W 091°00'2 4.4
2017-Nov-18 19:30N 32°08' W 091°01'2 4.0
2017-Nov-18 19:00N 32°08' W 091°03'2 4.4
2017-Nov-18 18:29N 32°08' W 091°06'2 3.1
2017-Nov-18 18:00N 32°07' W 091°06'4 5.2
2017-Nov-18 17:16N 32°04' W 091°03'1 4.9
2017-Nov-18 17:00N 32°02' W 091°04'27 3.9
2017-Nov-18 10:16N 31°42' W 091°24'19 3.8
2017-Nov-18 05:24N 31°24' W 091°29'  
2017-Nov-14 06:44N 31°46' W 091°22'3 8.3
2017-Nov-14 06:20N 31°50' W 091°21'3 4.8
2017-Nov-14 05:42N 31°51' W 091°18'8 7.3
2017-Nov-14 04:40N 31°56' W 091°12'6 7.2
2017-Nov-14 03:53N 31°59' W 091°06'4 8.7
2017-Nov-14 03:28N 32°02' W 091°04'4 7.7
2017-Nov-14 02:57N 32°06' W 091°06'2 4.0
2017-Nov-14 02:30N 32°08' W 091°06'4 7.1
2017-Nov-14 02:00N 32°07' W 091°02'4 7.8
2017-Nov-14 01:30N 32°11' W 090°60'4 8.6
2017-Nov-14 01:00N 32°15' W 090°59'4 8.4
2017-Nov-14 00:30N 32°18' W 090°55'3 5.8
2017-Nov-14 00:00N 32°21' W 090°55'4 7.9
2017-Nov-13 23:30N 32°21' W 090°60'4 7.9
2017-Nov-13 23:00N 32°25' W 091°00'4 8.3
2017-Nov-13 22:30N 32°27' W 091°05'4 7.8
2017-Nov-13 22:00N 32°30' W 091°07'  
Track history (hours):
 
Tides and Currents Weather Stations Pressure Air Temp Water Temp Dewpoint Dewpoint Depression Visibility Wind Speed Wind Dir Waves Ship Positions

Jeffrey G Stover

Owner: ACBL River Operations LLC, Jeffersonville, IN. More information available from US FCC via Universal Licensing System and Coast Guard Vessel Documentation Center.

Last reported at 2017-Nov-19 05:39 UTC. Time now 2017-Nov-20 17:00 UTC.
Position N 32°40' W 091°08'.

Length 56 m; draft 3.1 m.

Type: Towing. MMSI: 367702190.

Date/timePositionNaut miles runAvg speedWind from/ knotsBaromVisibWave heightAir tempDewpointWater temp
2017-Nov-19 05:39N 32°40' W 091°08'1 4.4
2017-Nov-19 05:29N 32°40' W 091°08'2 4.0
2017-Nov-19 04:58N 32°38' W 091°09'2 4.1
2017-Nov-19 04:30N 32°36' W 091°08'2 4.2
2017-Nov-19 04:00N 32°34' W 091°07'2 4.1
2017-Nov-19 03:24N 32°32' W 091°06'2 4.6
2017-Nov-19 03:00N 32°30' W 091°07'1 2.3
2017-Nov-19 02:30N 32°29' W 091°07'2 3.9
2017-Nov-19 02:00N 32°28' W 091°06'2 4.5
2017-Nov-19 01:30N 32°26' W 091°04'2 4.2
2017-Nov-19 01:00N 32°26' W 091°01'2 4.1
2017-Nov-19 00:30N 32°24' W 090°59'2 3.4
2017-Nov-19 00:00N 32°23' W 091°00'2 3.7
2017-Nov-18 23:30N 32°21' W 090°59'2 4.4
2017-Nov-18 23:00N 32°21' W 090°57'2 4.2
2017-Nov-18 22:30N 32°20' W 090°54'2 4.0
2017-Nov-18 22:00N 32°18' W 090°55'3 5.1
2017-Nov-18 21:30N 32°16' W 090°58'2 4.5
2017-Nov-18 21:00N 32°14' W 090°59'2 4.9
2017-Nov-18 20:30N 32°12' W 090°59'2 4.5
2017-Nov-18 20:00N 32°10' W 091°00'2 4.4
2017-Nov-18 19:30N 32°08' W 091°01'2 4.0
2017-Nov-18 19:00N 32°08' W 091°03'2 4.4
2017-Nov-18 18:29N 32°08' W 091°06'2 3.1
2017-Nov-18 18:00N 32°07' W 091°06'4 5.2
2017-Nov-18 17:16N 32°04' W 091°03'1 4.9
2017-Nov-18 17:00N 32°02' W 091°04'27 3.9
2017-Nov-18 10:16N 31°42' W 091°24'19 3.8
2017-Nov-18 05:24N 31°24' W 091°29'  
2017-Nov-14 06:44N 31°46' W 091°22'3 8.3
2017-Nov-14 06:20N 31°50' W 091°21'3 4.8
2017-Nov-14 05:42N 31°51' W 091°18'8 7.3
2017-Nov-14 04:40N 31°56' W 091°12'6 7.2
2017-Nov-14 03:53N 31°59' W 091°06'4 8.7
2017-Nov-14 03:28N 32°02' W 091°04'4 7.7
2017-Nov-14 02:57N 32°06' W 091°06'2 4.0
2017-Nov-14 02:30N 32°08' W 091°06'4 7.1
2017-Nov-14 02:00N 32°07' W 091°02'4 7.8
2017-Nov-14 01:30N 32°11' W 090°60'4 8.6
2017-Nov-14 01:00N 32°15' W 090°59'4 8.4
2017-Nov-14 00:30N 32°18' W 090°55'3 5.8
2017-Nov-14 00:00N 32°21' W 090°55'4 7.9
2017-Nov-13 23:30N 32°21' W 090°60'4 7.9
2017-Nov-13 23:00N 32°25' W 091°00'4 8.3
2017-Nov-13 22:30N 32°27' W 091°05'4 7.8
2017-Nov-13 22:00N 32°30' W 091°07'  

Dump ship's entire track history